Time;durP1;ratioP1;P1;durP2;ratioP2;P2;SDS_P1;SDS_P2;PMS_P1;PMS_P2;Temp;Humidity;BMP_temperature;BMP_pressure;BME280_temperature;BME280_humidity;BME280_pressure;Samples;Min_cycle;Max_cycle;Signal;HPM_P1;HPM_P2
2023/03/31 00:01:42;;;;;;;8.50;1.92;;;11.40;1.00;;;;;;5008749;28;20030;-73
2023/03/31 00:04:12;;;;;;;7.88;1.40;;;11.40;1.00;;;;;;5001023;28;20037;-72
2023/03/31 00:06:40;;;;;;;7.18;1.50;;;11.40;1.00;;;;;;5001886;28;20043;-72
2023/03/31 00:09:10;;;;;;;7.43;1.48;;;11.30;1.00;;;;;;5001279;28;20026;-78
2023/03/31 00:11:36;;;;;;;4.38;1.20;;;11.30;1.00;;;;;;5000750;28;20049;-72
2023/03/31 00:14:06;;;;;;;4.25;1.38;;;11.20;1.00;;;;;;5003474;28;20034;-72
2023/03/31 00:16:33;;;;;;;4.03;1.38;;;11.10;1.00;;;;;;4999571;28;20026;-72
2023/03/31 00:19:00;;;;;;;7.60;2.30;;;11.00;1.00;;;;;;5005722;28;20053;-72
2023/03/31 00:21:33;;;;;;;6.30;1.52;;;10.90;1.00;;;;;;5004157;28;20029;-72
2023/03/31 00:24:03;;;;;;;5.07;1.35;;;10.80;1.00;;;;;;5005167;28;20126;-73
2023/03/31 00:26:29;;;;;;;4.03;1.65;;;10.80;1.00;;;;;;5003169;28;20034;-73
2023/03/31 00:28:58;;;;;;;6.95;1.58;;;10.70;1.00;;;;;;5004638;28;20051;-73
2023/03/31 00:31:28;;;;;;;9.95;1.50;;;10.60;1.00;;;;;;5005587;28;20043;-73
2023/03/31 00:33:55;;;;;;;8.57;1.75;;;10.60;1.00;;;;;;5003359;28;20050;-73
2023/03/31 00:36:26;;;;;;;7.28;1.75;;;10.60;1.00;;;;;;5005661;28;20046;-72
2023/03/31 00:39:01;;;;;;;6.78;1.30;;;10.60;1.00;;;;;;5007065;28;20037;-72
2023/03/31 00:41:29;;;;;;;3.65;1.55;;;10.50;1.00;;;;;;5004696;28;20042;-72
2023/03/31 00:44:11;;;;;;;6.30;1.55;;;10.50;1.00;;;;;;5005810;28;20052;-72
2023/03/31 00:46:41;;;;;;;8.13;1.50;;;10.40;1.00;;;;;;5006802;28;20034;-72
2023/03/31 00:49:19;;;;;;;7.03;2.58;;;10.40;1.00;;;;;;5003268;28;20048;-78
2023/03/31 00:51:47;;;;;;;7.30;1.60;;;10.40;1.00;;;;;;5003953;28;20046;-72
2023/03/31 00:54:14;;;;;;;7.03;2.10;;;10.30;1.00;;;;;;5006142;28;20038;-73
2023/03/31 00:56:43;;;;;;;6.85;2.22;;;10.30;1.00;;;;;;5007054;28;20491;-72
2023/03/31 00:59:13;;;;;;;9.52;1.83;;;10.30;1.00;;;;;;5006053;28;20387;-74
2023/03/31 01:01:43;;;;;;;8.27;2.38;;;10.40;1.00;;;;;;5003184;28;20042;-72
2023/03/31 01:04:13;;;;;;;5.50;1.77;;;10.40;1.00;;;;;;4995055;28;20061;-79
2023/03/31 01:06:50;;;;;;;9.05;1.60;;;10.40;1.00;;;;;;4966944;28;20043;-72
2023/03/31 01:09:17;;;;;;;5.80;1.58;;;10.50;1.00;;;;;;4999633;28;20517;-72
2023/03/31 01:11:46;;;;;;;4.97;1.60;;;10.60;1.00;;;;;;4999495;28;20502;-72
2023/03/31 01:14:13;;;;;;;10.32;1.98;;;10.70;1.00;;;;;;4988775;28;20050;-73
2023/03/31 01:16:39;;;;;;;9.15;1.85;;;10.70;1.00;;;;;;5001971;28;20042;-73
2023/03/31 01:19:18;;;;;;;4.65;1.23;;;10.70;1.00;;;;;;5007057;28;20030;-73
2023/03/31 01:21:59;;;;;;;6.88;1.92;;;10.70;1.00;;;;;;5002470;28;20038;-73
2023/03/31 01:24:46;;;;;;;10.07;1.70;;;10.80;1.00;;;;;;4983916;28;20039;-73
2023/03/31 01:27:49;;;;;;;5.07;1.52;;;10.80;1.00;;;;;;5000613;28;20038;-74
2023/03/31 01:30:33;;;;;;;7.15;2.00;;;10.80;1.00;;;;;;5000977;28;20387;-72
2023/03/31 01:33:30;;;;;;;7.80;1.15;;;10.80;1.00;;;;;;5003001;28;20046;-72
2023/03/31 01:36:35;;;;;;;7.25;1.75;;;10.80;1.00;;;;;;5000104;28;20065;-73
2023/03/31 01:39:22;;;;;;;6.43;1.80;;;10.70;1.00;;;;;;5003296;28;20034;-73
2023/03/31 01:41:58;;;;;;;8.88;1.60;;;10.70;1.00;;;;;;4982526;28;20050;-73
2023/03/31 01:44:53;;;;;;;7.30;2.20;;;10.70;1.00;;;;;;4994753;28;20053;-72
2023/03/31 01:47:24;;;;;;;8.50;1.85;;;10.70;1.00;;;;;;4994885;28;20114;-72
2023/03/31 01:50:15;;;;;;;11.27;1.98;;;10.70;1.00;;;;;;5006349;28;20377;-73
2023/03/31 01:53:05;;;;;;;5.53;1.42;;;10.70;1.00;;;;;;5011892;28;20040;-73
2023/03/31 01:55:40;;;;;;;5.40;1.40;;;10.80;1.00;;;;;;4998961;28;20494;-73
2023/03/31 01:58:18;;;;;;;10.98;1.50;;;10.80;1.00;;;;;;5001824;28;20041;-72
2023/03/31 02:00:55;;;;;;;4.30;1.20;;;10.80;1.00;;;;;;5002743;28;20108;-73
2023/03/31 02:03:37;;;;;;;7.80;1.70;;;10.90;1.00;;;;;;5005713;28;20053;-72
2023/03/31 02:06:13;;;;;;;5.65;1.85;;;10.90;1.00;;;;;;4999028;28;20041;-74
2023/03/31 02:08:45;;;;;;;8.45;2.60;;;10.90;1.00;;;;;;5008163;28;20042;-73
2023/03/31 02:11:12;;;;;;;9.38;1.33;;;10.90;1.00;;;;;;5004611;28;20523;-78
2023/03/31 02:13:43;;;;;;;4.93;1.45;;;10.90;1.00;;;;;;4998020;28;20391;-73
2023/03/31 02:16:15;;;;;;;6.85;1.85;;;10.90;1.00;;;;;;4994446;28;20400;-73
2023/03/31 02:18:45;;;;;;;6.97;1.27;;;10.90;1.00;;;;;;5009951;28;20053;-73
2023/03/31 02:21:13;;;;;;;15.20;1.92;;;11.00;1.00;;;;;;5006508;28;20104;-80
2023/03/31 02:23:40;;;;;;;9.30;1.85;;;11.00;1.00;;;;;;5005188;28;20045;-73
2023/03/31 02:26:14;;;;;;;10.13;1.83;;;10.90;1.00;;;;;;5006221;28;20053;-73
2023/03/31 02:28:41;;;;;;;9.48;1.95;;;10.90;1.00;;;;;;5014182;28;20057;-73
2023/03/31 02:31:22;;;;;;;9.50;1.50;;;10.90;1.00;;;;;;5003829;28;20039;-73
2023/03/31 02:33:48;;;;;;;8.80;2.15;;;10.90;1.00;;;;;;4996111;28;20046;-73
2023/03/31 02:36:15;;;;;;;5.05;2.20;;;11.00;1.00;;;;;;5001932;28;20045;-80
2023/03/31 02:38:49;;;;;;;6.45;2.15;;;11.20;1.00;;;;;;5004469;28;20396;-73
2023/03/31 02:41:17;;;;;;;15.50;2.90;;;11.30;1.00;;;;;;5000858;28;20110;-79
2023/03/31 02:43:44;;;;;;;8.18;3.90;;;11.30;1.00;;;;;;5001442;28;20045;-72
2023/03/31 02:46:10;;;;;;;9.05;2.15;;;11.40;1.00;;;;;;4999997;28;20042;-72
2023/03/31 02:48:40;;;;;;;11.85;2.60;;;11.30;1.00;;;;;;5003290;28;20042;-72
2023/03/31 02:51:07;;;;;;;14.37;4.57;;;11.30;1.00;;;;;;4983358;28;20392;-72
2023/03/31 02:54:02;;;;;;;6.25;1.67;;;11.10;1.00;;;;;;4983647;28;20046;-72
2023/03/31 02:57:02;;;;;;;12.23;2.65;;;11.10;1.00;;;;;;4999869;28;20054;-73
2023/03/31 02:59:48;;;;;;;7.88;1.80;;;11.10;1.00;;;;;;4999958;28;20049;-73
2023/03/31 03:02:20;;;;;;;8.35;1.70;;;11.10;1.00;;;;;;4983333;28;20046;-78
2023/03/31 03:04:58;;;;;;;5.25;2.00;;;11.00;1.00;;;;;;4997349;28;20069;-72
2023/03/31 03:07:48;;;;;;;12.30;2.22;;;11.00;1.00;;;;;;5002970;28;20395;-74
2023/03/31 03:10:32;;;;;;;7.87;1.77;;;11.00;1.00;;;;;;4983157;28;20049;-80
2023/03/31 03:13:06;;;;;;;6.63;1.58;;;11.10;1.00;;;;;;5001399;28;20050;-73
2023/03/31 03:16:17;;;;;;;8.05;2.65;;;11.20;1.00;;;;;;4982916;28;20399;-72
2023/03/31 03:18:54;;;;;;;9.85;1.85;;;11.10;1.00;;;;;;4940750;29;20429;-73
2023/03/31 03:21:20;;;;;;;3.42;1.42;;;11.10;1.00;;;;;;4941846;29;20039;-72
2023/03/31 03:23:46;;;;;;;6.88;1.50;;;11.10;1.00;;;;;;4941390;29;20059;-72
2023/03/31 03:26:12;;;;;;;5.50;2.35;;;11.10;1.00;;;;;;4939813;29;20036;-72
2023/03/31 03:28:38;;;;;;;6.50;1.42;;;11.20;1.00;;;;;;4953955;28;20054;-73
2023/03/31 03:31:05;;;;;;;5.60;1.55;;;11.20;1.00;;;;;;4959871;28;20051;-72
2023/03/31 03:33:31;;;;;;;4.38;1.38;;;11.20;1.00;;;;;;4953384;28;20046;-72
2023/03/31 03:35:57;;;;;;;6.70;1.17;;;11.10;1.00;;;;;;4971265;28;20508;-72
2023/03/31 03:38:23;;;;;;;5.00;1.20;;;11.10;1.00;;;;;;4954635;28;20038;-72
2023/03/31 03:40:52;;;;;;;5.55;1.20;;;11.00;1.00;;;;;;4967026;28;20043;-72
2023/03/31 03:43:18;;;;;;;5.35;1.00;;;11.00;1.00;;;;;;4965302;28;20039;-79
2023/03/31 03:45:50;;;;;;;5.45;0.98;;;11.00;1.00;;;;;;4946369;28;20503;-73
2023/03/31 03:48:17;;;;;;;4.80;1.10;;;11.00;1.00;;;;;;4961791;28;20035;-78
2023/03/31 03:50:47;;;;;;;8.38;1.25;;;11.00;1.00;;;;;;5002261;28;20057;-72
2023/03/31 03:53:14;;;;;;;7.70;1.58;;;11.00;1.00;;;;;;5000895;28;20030;-72
2023/03/31 03:55:40;;;;;;;7.97;2.00;;;10.90;1.00;;;;;;5001679;28;20030;-72
2023/03/31 03:58:09;;;;;;;4.70;1.55;;;10.90;1.00;;;;;;5000508;28;20030;-72
2023/03/31 04:00:35;;;;;;;6.03;1.40;;;10.80;1.00;;;;;;4998650;28;20034;-72
2023/03/31 04:03:02;;;;;;;6.18;1.05;;;10.80;1.00;;;;;;4998875;28;20371;-74
2023/03/31 04:05:28;;;;;;;5.25;1.27;;;10.80;1.00;;;;;;5002414;28;20034;-72
2023/03/31 04:07:54;;;;;;;5.50;1.10;;;10.70;1.00;;;;;;4999492;28;20050;-72
2023/03/31 04:10:20;;;;;;;5.82;1.10;;;10.70;1.00;;;;;;4998804;28;20042;-79
2023/03/31 04:12:46;;;;;;;4.18;0.80;;;10.70;1.00;;;;;;4999620;28;20030;-72
2023/03/31 04:15:12;;;;;;;2.90;1.20;;;10.70;1.00;;;;;;5003633;28;20062;-72
2023/03/31 04:17:38;;;;;;;5.85;1.90;;;10.70;1.00;;;;;;5001414;28;20025;-73
2023/03/31 04:20:10;;;;;;;13.02;2.40;;;10.70;1.00;;;;;;5000964;28;20050;-72
2023/03/31 04:22:39;;;;;;;8.88;1.50;;;10.60;1.00;;;;;;5002525;28;20022;-72
2023/03/31 04:25:15;;;;;;;8.38;1.73;;;10.60;1.00;;;;;;5001795;28;20490;-72
2023/03/31 04:27:53;;;;;;;9.45;1.60;;;10.70;1.00;;;;;;5002803;28;20100;-73
2023/03/31 04:30:23;;;;;;;6.50;1.20;;;10.70;1.00;;;;;;5003382;28;20038;-79
2023/03/31 04:32:58;;;;;;;9.00;1.58;;;10.70;1.00;;;;;;5003034;28;20038;-72
2023/03/31 04:35:37;;;;;;;6.70;1.67;;;10.60;1.00;;;;;;4995228;28;20474;-72
2023/03/31 04:38:03;;;;;;;3.22;1.05;;;10.60;1.00;;;;;;4998173;28;20034;-73
2023/03/31 04:40:29;;;;;;;5.35;1.15;;;10.70;1.00;;;;;;4998988;28;20468;-73
2023/03/31 04:42:55;;;;;;;12.15;2.67;;;10.70;1.00;;;;;;4999695;28;20046;-73
2023/03/31 04:45:21;;;;;;;3.97;1.63;;;10.60;1.00;;;;;;5002387;28;20045;-79
2023/03/31 04:47:47;;;;;;;6.70;1.25;;;10.70;1.00;;;;;;5003305;28;20037;-72
2023/03/31 04:50:14;;;;;;;4.53;1.67;;;10.60;1.00;;;;;;4999483;28;20027;-72
2023/03/31 04:52:40;;;;;;;5.00;1.48;;;10.60;1.00;;;;;;5000379;28;20039;-73
2023/03/31 04:55:06;;;;;;;3.85;1.42;;;10.50;1.00;;;;;;4998377;28;20053;-73
2023/03/31 04:57:33;;;;;;;4.45;1.38;;;10.50;1.00;;;;;;4995252;28;20411;-72
2023/03/31 04:59:59;;;;;;;4.75;1.70;;;10.40;1.00;;;;;;5002626;28;20037;-72
2023/03/31 05:02:25;;;;;;;9.52;1.35;;;10.40;1.00;;;;;;5004206;28;20399;-72
2023/03/31 05:04:51;;;;;;;4.45;1.23;;;10.30;1.00;;;;;;5002075;28;20034;-75
2023/03/31 05:07:18;;;;;;;8.02;1.70;;;10.30;1.00;;;;;;5002489;28;20033;-72
2023/03/31 05:09:44;;;;;;;3.67;1.40;;;10.30;1.00;;;;;;5001429;28;20482;-75
2023/03/31 05:12:10;;;;;;;8.20;2.80;;;10.30;1.00;;;;;;5001918;28;20046;-72
2023/03/31 05:14:36;;;;;;;5.30;1.90;;;10.20;1.00;;;;;;5002959;28;20042;-72
2023/03/31 05:17:03;;;;;;;8.20;1.77;;;10.30;1.00;;;;;;5004101;28;20044;-72
2023/03/31 05:19:29;;;;;;;6.88;2.05;;;10.30;1.00;;;;;;4998303;28;20022;-73
2023/03/31 05:21:55;;;;;;;7.15;2.20;;;10.30;1.00;;;;;;4998646;28;20408;-73
2023/03/31 05:24:21;;;;;;;11.18;2.42;;;10.30;1.00;;;;;;5011012;28;20041;-77
2023/03/31 05:26:51;;;;;;;9.35;2.30;;;10.30;1.00;;;;;;5014140;28;20036;-72
2023/03/31 05:29:18;;;;;;;10.25;2.20;;;10.30;1.00;;;;;;5013895;28;20049;-72
2023/03/31 05:31:44;;;;;;;7.63;1.98;;;10.30;1.00;;;;;;5001702;28;20125;-73
2023/03/31 05:34:10;;;;;;;7.28;2.90;;;10.30;1.00;;;;;;5001975;28;20388;-72
2023/03/31 05:36:37;;;;;;;5.13;2.72;;;10.20;1.00;;;;;;5001493;28;20037;-72
2023/03/31 05:39:06;;;;;;;5.22;1.92;;;10.20;1.00;;;;;;5001881;28;20464;-73
2023/03/31 05:41:33;;;;;;;8.75;3.20;;;10.20;1.00;;;;;;5004624;28;20386;-73
2023/03/31 05:43:59;;;;;;;6.38;2.08;;;10.00;1.00;;;;;;5002954;28;20038;-74
2023/03/31 05:46:26;;;;;;;6.68;2.47;;;10.00;2.30;;;;;;4999495;28;20110;-80
2023/03/31 05:48:52;;;;;;;5.38;2.10;;;9.90;17.30;;;;;;5000548;28;20050;-73
2023/03/31 05:51:18;;;;;;;9.20;3.53;;;9.80;27.00;;;;;;5005540;28;20487;-73
2023/03/31 05:53:44;;;;;;;10.38;2.60;;;9.80;36.50;;;;;;5003566;28;20482;-74
2023/03/31 05:56:11;;;;;;;6.57;2.35;;;9.80;49.90;;;;;;4984235;28;20038;-73
2023/03/31 05:58:37;;;;;;;6.65;2.40;;;9.80;52.30;;;;;;4997581;28;20035;-74
2023/03/31 06:01:09;;;;;;;15.75;3.13;;;9.80;99.90;;;;;;5001679;28;20030;-73
2023/03/31 06:03:37;;;;;;;7.70;2.10;;;9.70;99.90;;;;;;4997689;28;20039;-73
2023/03/31 06:06:04;;;;;;;9.57;3.30;;;9.60;99.90;;;;;;4998399;28;20034;-73
2023/03/31 06:08:31;;;;;;;12.70;2.60;;;9.60;99.90;;;;;;5002596;28;20042;-73
2023/03/31 06:10:57;;;;;;;11.73;3.08;;;9.50;99.90;;;;;;5002955;28;20045;-72
2023/03/31 06:13:23;;;;;;;9.52;3.25;;;9.50;99.90;;;;;;5001805;28;20110;-79
2023/03/31 06:15:57;;;;;;;9.75;2.83;;;9.40;99.90;;;;;;4991383;28;20494;-72
2023/03/31 06:18:24;;;;;;;9.55;3.10;;;9.40;99.90;;;;;;5003198;28;20034;-79
2023/03/31 06:20:50;;;;;;;8.02;3.35;;;9.40;99.90;;;;;;5003551;28;20061;-75
2023/03/31 06:23:16;;;;;;;11.52;3.63;;;9.40;99.90;;;;;;5002930;28;20044;-73
2023/03/31 06:25:43;;;;;;;10.70;4.95;;;9.40;99.90;;;;;;5000919;28;20047;-74
2023/03/31 06:28:09;;;;;;;9.65;2.90;;;9.40;99.90;;;;;;5001387;28;20379;-73
2023/03/31 06:30:35;;;;;;;8.70;3.75;;;9.40;99.90;;;;;;4996993;28;20467;-74
2023/03/31 06:33:01;;;;;;;8.90;3.85;;;9.40;99.90;;;;;;4997566;28;20399;-74
2023/03/31 06:35:27;;;;;;;10.32;3.88;;;9.40;99.90;;;;;;5004488;28;20045;-79
2023/03/31 06:37:53;;;;;;;6.32;3.63;;;9.50;99.90;;;;;;5004481;28;20395;-74
2023/03/31 06:40:20;;;;;;;6.80;3.42;;;9.50;99.90;;;;;;5011626;28;20378;-75
2023/03/31 06:42:46;;;;;;;8.93;3.63;;;9.50;99.90;;;;;;5010037;28;20033;-75
2023/03/31 06:45:12;;;;;;;9.00;4.47;;;9.50;99.90;;;;;;5005210;28;20061;-75
2023/03/31 06:47:40;;;;;;;12.75;4.15;;;9.50;99.90;;;;;;5003225;28;20030;-75
2023/03/31 06:50:08;;;;;;;7.40;4.40;;;9.60;99.90;;;;;;5002028;28;20065;-76
2023/03/31 06:52:35;;;;;;;8.63;4.20;;;9.70;99.90;;;;;;4999436;28;20038;-76
2023/03/31 06:55:01;;;;;;;11.63;5.20;;;9.70;99.90;;;;;;5002520;28;20041;-76
2023/03/31 06:57:28;;;;;;;10.13;4.63;;;9.70;99.90;;;;;;5000721;28;20034;-80
2023/03/31 06:59:54;;;;;;;7.82;4.10;;;9.70;99.90;;;;;;5004022;28;20033;-76
2023/03/31 07:02:20;;;;;;;9.10;4.30;;;9.70;99.90;;;;;;4998832;28;20052;-76
2023/03/31 07:04:47;;;;;;;9.30;4.53;;;9.80;99.90;;;;;;5002657;28;20045;-76
2023/03/31 07:07:13;;;;;;;12.95;5.25;;;9.80;99.90;;;;;;4984687;28;20031;-76
2023/03/31 07:09:39;;;;;;;9.00;5.55;;;9.80;99.90;;;;;;5001921;28;20038;-76
2023/03/31 07:12:05;;;;;;;9.73;4.30;;;9.80;99.90;;;;;;4999601;28;20047;-76
2023/03/31 07:14:31;;;;;;;6.88;4.18;;;9.90;99.90;;;;;;5001449;28;20030;-77
2023/03/31 07:16:58;;;;;;;7.97;4.75;;;9.90;99.90;;;;;;5004143;28;20034;-76
2023/03/31 07:19:24;;;;;;;10.48;4.72;;;9.90;99.90;;;;;;5003378;28;20034;-76
2023/03/31 07:21:52;;;;;;;10.52;4.53;;;10.00;99.90;;;;;;4999298;28;20093;-76
2023/03/31 07:24:18;;;;;;;10.10;5.20;;;10.00;99.90;;;;;;5004183;28;20042;-77
2023/03/31 07:26:44;;;;;;;14.27;3.92;;;10.10;99.90;;;;;;5002367;28;20034;-76
2023/03/31 07:29:10;;;;;;;11.88;4.20;;;10.20;99.90;;;;;;4999947;28;20046;-74
2023/03/31 07:31:36;;;;;;;10.25;5.40;;;10.30;99.90;;;;;;5003894;28;20030;-75
2023/03/31 07:34:03;;;;;;;10.90;4.63;;;10.40;99.90;;;;;;5001887;28;20174;-74
2023/03/31 07:36:30;;;;;;;7.05;4.60;;;10.50;99.90;;;;;;5002178;28;20030;-80
2023/03/31 07:38:56;;;;;;;8.05;4.60;;;10.70;99.90;;;;;;5001760;28;20033;-76
2023/03/31 07:41:23;;;;;;;10.90;4.15;;;11.10;99.90;;;;;;5001084;28;20034;-76
2023/03/31 07:43:49;;;;;;;10.80;5.30;;;11.20;81.80;;;;;;5002467;28;20032;-74
2023/03/31 07:46:22;;;;;;;9.13;4.45;;;11.50;26.90;;;;;;5000308;28;20046;-77
2023/03/31 07:48:49;;;;;;;10.50;4.30;;;11.70;23.90;;;;;;4998431;28;20034;-75
2023/03/31 07:51:18;;;;;;;12.88;4.35;;;12.20;1.00;;;;;;4999546;28;20039;-76
2023/03/31 07:53:45;;;;;;;7.05;3.88;;;12.70;1.00;;;;;;4998232;28;20467;-78
2023/03/31 07:56:12;;;;;;;6.63;2.97;;;12.90;1.00;;;;;;4998667;28;20038;-76
2023/03/31 07:58:38;;;;;;;10.95;3.22;;;13.40;1.00;;;;;;5002426;28;20049;-76
2023/03/31 08:01:04;;;;;;;7.50;3.50;;;14.00;1.00;;;;;;4999331;28;20037;-76
2023/03/31 08:03:30;;;;;;;11.80;3.97;;;13.00;1.00;;;;;;5002941;28;20037;-83
2023/03/31 08:05:57;;;;;;;4.57;3.15;;;12.50;1.00;;;;;;4997504;28;20057;-75
2023/03/31 08:08:23;;;;;;;13.10;5.13;;;12.10;1.00;;;;;;4997162;28;20081;-76
2023/03/31 08:10:49;;;;;;;7.63;4.50;;;11.90;1.00;;;;;;5000385;28;20053;-77
2023/03/31 08:13:15;;;;;;;10.48;4.32;;;12.00;1.00;;;;;;5001069;28;20034;-76
2023/03/31 08:15:42;;;;;;;11.73;4.97;;;12.00;1.00;;;;;;5001769;28;20030;-76
2023/03/31 08:18:08;;;;;;;9.05;4.18;;;11.90;1.00;;;;;;5003483;28;20037;-75
2023/03/31 08:20:34;;;;;;;7.65;4.00;;;11.80;1.00;;;;;;4997260;28;20041;-77
2023/03/31 08:23:00;;;;;;;5.43;3.17;;;11.70;1.00;;;;;;4993086;28;20035;-76
2023/03/31 08:25:26;;;;;;;6.60;3.30;;;11.60;1.00;;;;;;4999749;28;20030;-75
2023/03/31 08:27:52;;;;;;;10.52;3.42;;;11.60;1.00;;;;;;4995600;28;20535;-76
2023/03/31 08:30:19;;;;;;;9.55;3.97;;;11.60;1.00;;;;;;4980318;28;20114;-76
2023/03/31 08:32:46;;;;;;;5.95;2.67;;;11.50;1.00;;;;;;4998311;28;20045;-76
2023/03/31 08:35:12;;;;;;;4.57;2.83;;;11.50;1.00;;;;;;4999885;28;20393;-76
2023/03/31 08:37:38;;;;;;;5.18;3.00;;;11.60;1.00;;;;;;5000039;28;20033;-81
2023/03/31 08:40:08;;;;;;;5.38;3.17;;;11.80;1.00;;;;;;5007578;28;20065;-77
2023/03/31 08:42:40;;;;;;;7.18;3.50;;;12.20;1.00;;;;;;4994313;28;20034;-82
2023/03/31 08:45:30;;;;;;;5.38;3.20;;;12.40;1.00;;;;;;5001219;28;20042;-76
2023/03/31 08:48:06;;;;;;;9.20;3.40;;;12.30;1.00;;;;;;5002789;28;20061;-76
2023/03/31 08:50:46;;;;;;;11.25;4.07;;;12.30;1.00;;;;;;4996336;28;20754;-83
2023/03/31 08:53:25;;;;;;;18.80;6.28;;;12.10;1.00;;;;;;5013645;28;20037;-77
2023/03/31 08:55:53;;;;;;;10.75;4.28;;;12.00;1.00;;;;;;4998748;28;20147;-77
2023/03/31 08:58:39;;;;;;;7.78;4.10;;;11.90;1.00;;;;;;5003932;28;20030;-76
2023/03/31 09:01:43;;;;;;;8.60;4.03;;;11.70;1.00;;;;;;4994329;28;20029;-77
2023/03/31 09:04:24;;;;;;;9.95;4.40;;;11.70;4.70;;;;;;5003527;28;20037;-78
2023/03/31 09:06:56;;;;;;;9.55;3.38;;;11.60;22.70;;;;;;5002037;28;20046;-78
2023/03/31 09:09:54;;;;;;;13.40;5.05;;;11.40;28.10;;;;;;4978416;28;20042;-78
2023/03/31 09:12:54;;;;;;;14.13;6.43;;;11.30;66.70;;;;;;4995806;28;20042;-77
2023/03/31 09:15:39;;;;;;;13.13;4.47;;;11.30;99.90;;;;;;4999279;28;20049;-76
2023/03/31 09:18:26;;;;;;;4.35;1.50;;;10.80;29.70;;;;;;4989536;28;20030;-79
2023/03/31 09:20:57;;;;;;;5.28;2.20;;;8.20;32.80;;;;;;4996815;28;20026;-78
2023/03/31 09:23:41;;;;;;;5.40;1.77;;;7.80;99.90;;;;;;5008404;28;20030;-79
2023/03/31 09:26:26;;;;;;;11.88;2.00;;;7.40;99.90;;;;;;5006822;28;20049;-78
2023/03/31 09:28:54;;;;;;;8.73;2.65;;;7.40;99.90;;;;;;5002959;28;20166;-79
2023/03/31 09:31:22;;;;;;;7.40;2.08;;;7.60;99.90;;;;;;5006080;28;20364;-80
2023/03/31 09:33:51;;;;;;;12.98;2.25;;;7.70;99.90;;;;;;4997678;28;20030;-81
2023/03/31 09:36:21;;;;;;;5.90;2.60;;;7.70;99.90;;;;;;4999406;28;20038;-79
2023/03/31 09:38:47;;;;;;;10.15;2.35;;;7.70;99.90;;;;;;4994204;28;20039;-80
2023/03/31 09:41:15;;;;;;;13.60;2.13;;;7.70;99.90;;;;;;5002598;28;20061;-79
2023/03/31 09:43:44;;;;;;;9.32;2.45;;;7.80;99.90;;;;;;5005302;28;20060;-82
2023/03/31 09:46:32;;;;;;;7.93;2.55;;;7.80;99.90;;;;;;5005647;28;20045;-80
2023/03/31 09:49:05;;;;;;;9.50;1.98;;;7.90;99.90;;;;;;4995902;28;20038;-80
2023/03/31 09:51:36;;;;;;;8.02;1.98;;;7.90;99.90;;;;;;5004127;28;20030;-85
2023/03/31 09:54:18;;;;;;;5.95;1.55;;;8.00;99.90;;;;;;5003670;28;20034;-81
2023/03/31 09:56:47;;;;;;;3.70;1.65;;;8.00;99.90;;;;;;4997966;28;20042;-82
2023/03/31 09:59:19;;;;;;;7.38;2.35;;;8.10;99.90;;;;;;4991824;28;20501;-80
2023/03/31 10:01:55;;;;;;;6.82;2.05;;;8.20;99.90;;;;;;5005895;28;20035;-81
2023/03/31 10:04:24;;;;;;;6.07;2.20;;;8.20;99.90;;;;;;4989400;28;20030;-81
2023/03/31 10:06:53;;;;;;;9.57;2.63;;;8.30;99.90;;;;;;5006254;28;20038;-80
2023/03/31 10:09:29;;;;;;;9.48;2.90;;;8.30;99.90;;;;;;5005085;28;20467;-79
2023/03/31 10:12:01;;;;;;;10.50;3.38;;;8.40;99.90;;;;;;5000755;28;20045;-80
2023/03/31 10:14:48;;;;;;;8.43;2.30;;;8.50;99.90;;;;;;5002566;28;20126;-80
2023/03/31 10:17:21;;;;;;;9.68;2.55;;;8.50;99.90;;;;;;4955160;28;20359;-82
2023/03/31 10:19:50;;;;;;;13.45;2.47;;;8.60;99.90;;;;;;4990474;28;20030;-80
2023/03/31 10:22:20;;;;;;;11.48;3.25;;;8.80;99.90;;;;;;5002220;28;20042;-80
2023/03/31 10:24:47;;;;;;;10.57;3.70;;;9.20;99.90;;;;;;4983740;28;20057;-80
2023/03/31 10:27:26;;;;;;;12.80;3.45;;;9.50;99.90;;;;;;4998559;28;20042;-80
2023/03/31 10:29:57;;;;;;;8.10;3.60;;;9.80;99.90;;;;;;5009874;28;20497;-79
2023/03/31 10:32:27;;;;;;;10.30;3.08;;;10.00;99.90;;;;;;5008939;28;20041;-82
2023/03/31 10:34:55;;;;;;;17.15;4.15;;;10.10;99.90;;;;;;5001988;28;20053;-81
2023/03/31 10:37:25;;;;;;;8.25;3.72;;;10.40;99.90;;;;;;5006779;28;20379;-80
2023/03/31 10:40:05;;;;;;;12.15;3.80;;;10.60;99.90;;;;;;4999647;28;20049;-81
2023/03/31 10:42:32;;;;;;;11.45;3.95;;;10.80;99.90;;;;;;5001516;28;20498;-82
2023/03/31 10:45:38;;;;;;;9.25;2.88;;;10.90;99.90;;;;;;5001427;28;20621;-83
2023/03/31 10:48:15;;;;;;;9.75;3.13;;;11.10;99.90;;;;;;4991157;28;20042;-83
2023/03/31 10:50:42;;;;;;;9.98;2.75;;;11.20;99.90;;;;;;5012376;28;20041;-83
2023/03/31 10:53:13;;;;;;;10.98;2.47;;;11.00;99.90;;;;;;5012648;28;20144;-82
2023/03/31 10:55:58;;;;;;;13.77;3.00;;;11.00;99.90;;;;;;5024343;28;20049;-82
2023/03/31 10:58:41;;;;;;;7.95;2.25;;;11.10;99.90;;;;;;4991923;28;20049;-82
2023/03/31 11:01:21;;;;;;;11.32;3.45;;;11.10;99.90;;;;;;5001668;28;20030;-82
2023/03/31 11:04:20;;;;;;;13.43;2.70;;;11.00;99.90;;;;;;5000294;28;20038;-82
2023/03/31 11:06:51;;;;;;;5.88;1.67;;;10.60;99.90;;;;;;4977485;28;20050;-82
2023/03/31 11:09:42;;;;;;;10.52;2.08;;;10.40;99.90;;;;;;5004803;28;20372;-81
2023/03/31 11:12:18;;;;;;;8.93;1.98;;;10.30;99.90;;;;;;4985648;28;20114;-82
2023/03/31 11:14:47;;;;;;;5.45;1.30;;;10.20;99.90;;;;;;5004743;28;20355;-83
2023/03/31 11:17:28;;;;;;;9.88;1.92;;;10.20;99.90;;;;;;5003054;28;20029;-81
2023/03/31 11:20:06;;;;;;;;;;;10.20;99.90;;;;;;5001068;28;20035;-81
2023/03/31 11:22:56;;;;;;;14.27;2.40;;;10.20;99.90;;;;;;5001044;28;19909;-81
2023/03/31 11:25:28;;;;;;;13.07;3.10;;;10.20;99.90;;;;;;4999155;28;20054;-81
2023/03/31 11:28:13;;;;;;;13.48;3.85;;;10.30;99.90;;;;;;4994657;28;20114;-81
2023/03/31 11:30:47;;;;;;;8.63;2.22;;;10.40;99.90;;;;;;4997186;28;20038;-84
2023/03/31 11:33:19;;;;;;;11.82;2.45;;;10.40;99.90;;;;;;5003582;28;20045;-82
2023/03/31 11:36:11;;;;;;;9.45;2.40;;;10.70;99.90;;;;;;5003960;28;20037;-82
2023/03/31 11:38:49;;;;;;;6.32;2.53;;;11.00;99.90;;;;;;4986250;28;20042;-81
2023/03/31 11:41:26;;;;;;;8.82;2.28;;;11.30;99.90;;;;;;4983149;28;20446;-80
2023/03/31 11:43:59;;;;;;;3.72;1.52;;;11.50;99.90;;;;;;5008588;28;20034;-81
2023/03/31 11:46:53;;;;;;;11.73;2.28;;;12.00;99.90;;;;;;4987631;28;20053;-81
2023/03/31 11:49:27;;;;;;;8.45;2.17;;;12.10;99.90;;;;;;4993180;28;20030;-81
2023/03/31 11:52:01;;;;;;;6.15;1.60;;;12.20;99.90;;;;;;4983602;28;20423;-81
2023/03/31 11:54:35;;;;;;;6.00;0.98;;;12.10;99.90;;;;;;4987719;28;20038;-81
2023/03/31 11:57:09;;;;;;;5.57;1.52;;;11.90;99.90;;;;;;5001404;28;20113;-79
2023/03/31 11:59:37;;;;;;;6.57;1.77;;;11.80;99.90;;;;;;4994363;28;20479;-80
2023/03/31 12:02:37;;;;;;;7.78;1.48;;;11.60;99.90;;;;;;5001692;28;20034;-82
2023/03/31 12:05:07;;;;;;;6.78;1.85;;;11.40;99.90;;;;;;4999803;28;20041;-80
2023/03/31 12:07:47;;;;;;;7.93;1.25;;;11.20;99.90;;;;;;4984249;28;20043;-80
2023/03/31 12:10:30;;;;;;;9.55;1.98;;;11.10;99.90;;;;;;4978669;28;20050;-80
2023/03/31 12:13:15;;;;;;;12.88;2.42;;;11.10;99.90;;;;;;5001616;28;20038;-81
2023/03/31 12:16:00;;;;;;;7.78;1.67;;;11.30;99.90;;;;;;5002022;28;20490;-81
2023/03/31 12:18:31;;;;;;;7.85;2.00;;;11.30;99.90;;;;;;4975035;28;20383;-80
2023/03/31 12:21:02;;;;;;;8.20;1.48;;;11.40;99.90;;;;;;5007723;28;20057;-84
2023/03/31 12:23:34;;;;;;;9.75;2.40;;;11.30;99.90;;;;;;5007102;28;20030;-83
2023/03/31 12:26:12;;;;;;;4.85;1.23;;;11.20;99.90;;;;;;4999585;28;20041;-80
2023/03/31 12:28:40;;;;;;;4.80;1.17;;;11.10;99.90;;;;;;4985223;28;20050;-83
2023/03/31 12:31:10;;;;;;;7.57;1.75;;;11.10;99.90;;;;;;5012220;28;20053;-82
2023/03/31 12:33:42;;;;;;;4.13;1.20;;;11.10;99.90;;;;;;5016865;28;20034;-81
2023/03/31 12:36:20;;;;;;;4.00;1.73;;;11.10;99.90;;;;;;5011659;28;20047;-80
2023/03/31 12:38:49;;;;;;;9.82;1.38;;;11.20;99.90;;;;;;4998989;28;20029;-80
2023/03/31 12:41:34;;;;;;;4.38;0.80;;;11.20;99.90;;;;;;5012190;28;20049;-79
2023/03/31 12:44:09;;;;;;;3.08;0.80;;;11.20;99.90;;;;;;5008876;28;20042;-82
2023/03/31 12:46:44;;;;;;;4.72;0.90;;;11.30;99.90;;;;;;5007750;28;20039;-79
2023/03/31 12:49:35;;;;;;;7.03;0.88;;;11.20;99.90;;;;;;4997836;28;20041;-79
2023/03/31 12:52:07;;;;;;;;;;;11.30;99.90;;;;;;4999721;28;20510;-78
2023/03/31 12:55:09;;;;;;;3.10;1.08;;;11.40;99.90;;;;;;5009702;28;19910;-80
2023/03/31 12:57:36;;;;;;;1.85;0.43;;;11.40;99.90;;;;;;5002960;28;20037;-80
2023/03/31 13:00:15;;;;;;;4.25;0.77;;;11.40;99.60;;;;;;4999961;28;20234;-77
2023/03/31 13:02:42;;;;;;;1.50;0.75;;;11.40;37.30;;;;;;5004734;28;20034;-82
2023/03/31 13:05:39;;;;;;;2.63;0.98;;;11.50;34.30;;;;;;5009696;28;20042;-80
2023/03/31 13:08:09;;;;;;;2.70;0.50;;;11.50;21.80;;;;;;5029899;28;20030;-78
2023/03/31 13:10:56;;;;;;;3.03;0.50;;;11.50;27.80;;;;;;5026341;28;20094;-78
2023/03/31 13:13:23;;;;;;;2.67;0.57;;;11.70;87.00;;;;;;5016284;28;20029;-77
2023/03/31 13:15:52;;;;;;;3.25;0.82;;;11.70;37.30;;;;;;5006417;28;20030;-77
2023/03/31 13:18:20;;;;;;;6.78;0.75;;;11.70;40.70;;;;;;5005218;28;20035;-79
2023/03/31 13:20:59;;;;;;;6.68;1.10;;;11.80;63.40;;;;;;5010688;28;20064;-78